Portada
METAR-TAF:

METAR-TAF

Aeroports :

Quibdó, Colòmbia

latitud: 05-43N, longitud: 076-37W, altitud: 53 m

Observació

L'informe es va fer fa 3 hores i 59 minuts, a les 00:00 UTC
Vent calma
Temperatura 26°C
Humitat 94%
Pressió 1008 hPa
Visibilitat 10 km o més
Cel ennuvolat a una alçada de 2000 ft
Cel cobert a una alçada de 20000 ft

METAR: SKUI 220000Z 00000KT 9999 BKN020 OVC200 26/25 A2978

Hora: 22:59 (03:59 UTC)


TAF: manca

Observacions i pronòstics meteorològics de més de 4000 aeroports (METAR i TAF).

Les estacions disponibles són els punts grocs i vermells al mapa.

Posi el ratolí al punt desitjat per veure el nom de l'estació.

Feu clic per veure les observacions i els pronòstics meteorològics.

Per canviar el mapa: feu clic els botons verds amb una creu de color negre per apropar; al botó verd amb un guió per allunyar la imatge; o en les fletxes verdes per a mapes adjacents.


METAR-TAF: